KBNW

Boone Municipal Airport

Boone, Iowa, USA
METAR KBNW 220955Z AUTO 18004KT M1/4SM FG OVC002 14/14 A3001 RMK AO2
Observed Flight Rules
May-22 @ 09:55 UTC (13 minutes ago) Instrument Flight Rules
Wind Visibility Clouds Conditions
180° at 4 knots 1/4 miles
  • Overcast at 200' AGL
  • Fog
Temperatures Readings
Current 14°C / 57°F
Dewpoint 14°C / 57°F
Humidity 100%
Altimeter 30.01" Hg
Pressure 1016 hPa
Elevation 354
METAR KBNW 220955Z AUTO 18004KT M1/4SM FG OVC002 14/14 A3001 RMK AO2
Observed Flight Rules
May-22 @ 09:55 UTC
(13 minutes ago)
LIFR
Wind Visibility
180° at 4 knots 1/4 miles
Clouds
  • Overcast at 200' AGL
Conditions
  • Fog
Temperature Dewpoint
14°C / 57°F 14°C / 57°F
Humidity Altimeter Pressure
100% 30.01" Hg 1016 hPa